createdAt,value
2023-02-01T00:01:27.602Z,97600.31
2023-02-01T00:03:56.395Z,97593.53
2023-02-01T00:06:25.945Z,97592.84
2023-02-01T00:08:54.940Z,97595.44
2023-02-01T00:11:23.979Z,97589.69
2023-02-01T00:13:52.663Z,97580.34
2023-02-01T00:16:22.784Z,97570.44
2023-02-01T00:18:52.424Z,97559.03
2023-02-01T00:21:22.143Z,97567.22
2023-02-01T00:23:51.996Z,97548.78
2023-02-01T00:26:21.690Z,97562.50
2023-02-01T00:28:50.184Z,97552.69
2023-02-01T00:31:18.676Z,97554.09
2023-02-01T00:33:49.518Z,97552.97
2023-02-01T00:36:17.901Z,97562.59
2023-02-01T00:38:46.726Z,97559.97
2023-02-01T00:41:18.458Z,97553.03
2023-02-01T00:43:47.420Z,97550.28
2023-02-01T00:46:17.724Z,97551.41
2023-02-01T00:48:46.638Z,97553.03
2023-02-01T00:51:16.738Z,97553.09
2023-02-01T00:53:45.367Z,97573.13
2023-02-01T00:56:14.306Z,97590.56
2023-02-01T00:58:45.886Z,97595.44
2023-02-01T01:01:16.147Z,97639.47
2023-02-01T01:03:46.033Z,97640.00
2023-02-01T01:06:16.233Z,97654.94
2023-02-01T01:08:45.075Z,97649.25
2023-02-01T01:11:15.961Z,97660.66
2023-02-01T01:13:47.956Z,97629.69
2023-02-01T01:16:16.532Z,97635.13
2023-02-01T01:18:45.383Z,97625.84
2023-02-01T01:21:14.837Z,97640.78
2023-02-01T01:23:43.762Z,97628.03
2023-02-01T01:26:14.493Z,97625.63
2023-02-01T01:28:43.140Z,97623.38
2023-02-01T01:31:14.177Z,97632.41
2023-02-01T01:33:44.866Z,97632.31
2023-02-01T01:36:13.798Z,97628.50
2023-02-01T01:38:42.931Z,97627.94
2023-02-01T01:41:15.140Z,97644.31
2023-02-01T01:43:55.830Z,97646.75
2023-02-01T01:46:26.837Z,97665.94
2023-02-01T01:48:56.745Z,97662.28
2023-02-01T01:51:27.133Z,97648.06
2023-02-01T01:54:02.003Z,97637.53
2023-02-01T01:56:31.526Z,97633.72
2023-02-01T01:59:00.537Z,97639.34
2023-02-01T02:01:30.508Z,97652.72
2023-02-01T02:03:59.291Z,97650.75
2023-02-01T02:06:35.641Z,97635.06
2023-02-01T02:09:07.076Z,97644.97
2023-02-01T02:11:35.572Z,97649.34
2023-02-01T02:14:05.385Z,97648.84
2023-02-01T02:16:46.585Z,97656.53
2023-02-01T02:19:25.025Z,97648.97
2023-02-01T02:22:08.290Z,97647.03
2023-02-01T02:24:56.121Z,97659.75
2023-02-01T02:27:33.919Z,97656.25
2023-02-01T02:30:35.280Z,97642.41
2023-02-01T02:33:48.553Z,97644.59
2023-02-01T02:36:21.976Z,97650.81
2023-02-01T02:38:55.096Z,97645.66
2023-02-01T02:41:47.339Z,97662.50
2023-02-01T02:44:39.030Z,97658.91
2023-02-01T02:47:35.866Z,97646.22
2023-02-01T02:50:35.387Z,97659.53
2023-02-01T02:53:24.060Z,97660.06
2023-02-01T02:55:53.584Z,97668.19
2023-02-01T02:58:39.853Z,97675.19
2023-02-01T03:01:25.825Z,97680.09
2023-02-01T03:04:11.324Z,97673.25
2023-02-01T03:06:41.349Z,97675.53
2023-02-01T03:09:16.552Z,97666.63
2023-02-01T03:12:03.155Z,97672.28
2023-02-01T03:14:34.302Z,97670.44
2023-02-01T03:17:07.412Z,97673.69
2023-02-01T03:19:38.125Z,97671.47
2023-02-01T03:22:10.339Z,97668.22
2023-02-01T03:24:41.764Z,97682.59
2023-02-01T03:27:13.087Z,97666.06
2023-02-01T03:29:46.365Z,97684.56
2023-02-01T03:32:14.841Z,97678.00
2023-02-01T03:34:43.377Z,97674.06
2023-02-01T03:37:15.089Z,97692.69
2023-02-01T03:39:47.909Z,97684.56
2023-02-01T03:42:19.909Z,97684.56
2023-02-01T03:44:51.912Z,97684.56
2023-02-01T03:47:22.908Z,97686.19
2023-02-01T03:49:54.183Z,97672.59
2023-02-01T03:52:27.233Z,97678.84
2023-02-01T03:54:56.209Z,97673.88
2023-02-01T03:57:29.297Z,97671.78
2023-02-01T04:00:06.710Z,97668.00
2023-02-01T04:02:35.309Z,97664.09
2023-02-01T04:05:04.056Z,97670.03
2023-02-01T04:07:34.053Z,97662.50
2023-02-01T04:10:04.685Z,97671.91
2023-02-01T04:12:33.096Z,97669.09
2023-02-01T04:15:01.577Z,97669.25
2023-02-01T04:17:30.063Z,97674.31
2023-02-01T04:19:58.644Z,97671.34
2023-02-01T04:22:27.114Z,97671.09
2023-02-01T04:24:57.043Z,97668.34
2023-02-01T04:27:28.039Z,97678.16
2023-02-01T04:29:58.468Z,97685.28
2023-02-01T04:32:26.994Z,97690.41
2023-02-01T04:34:55.506Z,97684.94
2023-02-01T04:37:23.747Z,97687.94
2023-02-01T04:39:52.220Z,97689.16
2023-02-01T04:42:21.824Z,97674.34
2023-02-01T04:44:50.268Z,97683.63
2023-02-01T04:47:18.484Z,97679.59
2023-02-01T04:49:47.044Z,97680.72
2023-02-01T04:52:15.325Z,97678.16
2023-02-01T04:54:43.933Z,97678.47
2023-02-01T04:57:14.500Z,97682.03
2023-02-01T04:59:44.501Z,97674.06
2023-02-01T05:02:12.888Z,97679.03
2023-02-01T05:04:41.563Z,97674.41
2023-02-01T05:07:09.867Z,97678.75
2023-02-01T05:09:38.329Z,97674.91
2023-02-01T05:12:24.423Z,97682.59
2023-02-01T05:14:54.341Z,97673.38
2023-02-01T05:17:22.662Z,97682.19
2023-02-01T05:19:51.222Z,97670.78
2023-02-01T05:22:19.547Z,97668.66
2023-02-01T05:24:48.163Z,97661.34
2023-02-01T05:27:16.415Z,97668.09
2023-02-01T05:29:44.836Z,97667.78
2023-02-01T05:32:22.171Z,97660.44
2023-02-01T05:34:51.410Z,97660.25
2023-02-01T05:37:19.734Z,97663.03
2023-02-01T05:39:48.164Z,97659.25
2023-02-01T05:42:16.438Z,97656.13
2023-02-01T05:44:45.128Z,97654.22
2023-02-01T05:47:14.657Z,97645.63
2023-02-01T05:49:43.420Z,97641.00
2023-02-01T05:52:11.576Z,97646.88
2023-02-01T05:54:40.121Z,97644.16
2023-02-01T05:57:08.566Z,97646.66
2023-02-01T05:59:42.038Z,97645.03
2023-02-01T06:02:11.193Z,97647.75
2023-02-01T06:04:41.128Z,97660.16
2023-02-01T06:07:11.398Z,97647.59
2023-02-01T06:09:40.169Z,97652.75
2023-02-01T06:12:08.649Z,97639.78
2023-02-01T06:14:38.272Z,97646.47
2023-02-01T06:17:07.301Z,97650.81
2023-02-01T06:19:35.790Z,97647.78
2023-02-01T06:22:07.244Z,97652.63
2023-02-01T06:24:35.809Z,97653.25
2023-02-01T06:27:04.082Z,97660.41
2023-02-01T06:29:32.734Z,97657.09
2023-02-01T06:32:01.182Z,97662.84
2023-02-01T06:34:29.890Z,97660.97
2023-02-01T06:36:58.171Z,97655.81
2023-02-01T06:39:29.540Z,97660.59
2023-02-01T06:41:57.764Z,97657.50
2023-02-01T06:44:26.230Z,97655.31
2023-02-01T06:46:55.903Z,97646.88
2023-02-01T06:49:24.670Z,97652.88
2023-02-01T06:51:52.952Z,97645.00
2023-02-01T06:54:21.759Z,97638.25
2023-02-01T06:56:51.323Z,97637.25
2023-02-01T06:59:19.959Z,97639.97
2023-02-01T07:01:48.175Z,97643.41
2023-02-01T07:04:16.818Z,97631.81
2023-02-01T07:06:45.500Z,97641.53
2023-02-01T07:09:16.025Z,97628.28
2023-02-01T07:11:45.094Z,97626.34
2023-02-01T07:14:15.304Z,97628.56
2023-02-01T07:16:43.488Z,97633.44
2023-02-01T07:19:12.153Z,97634.25
2023-02-01T07:21:40.504Z,97639.41
2023-02-01T07:24:09.210Z,97634.03
2023-02-01T07:26:37.604Z,97628.06
2023-02-01T07:29:06.109Z,97643.28
2023-02-01T07:31:35.733Z,97636.22
2023-02-01T07:34:04.195Z,97635.94
2023-02-01T07:36:32.403Z,97636.47
2023-02-01T07:39:01.052Z,97632.41
2023-02-01T07:41:29.356Z,97639.50
2023-02-01T07:43:58.691Z,97640.56
2023-02-01T07:46:26.994Z,97644.09
2023-02-01T07:48:57.669Z,97645.47
2023-02-01T07:51:25.890Z,97642.44
2023-02-01T07:53:56.345Z,97650.34
2023-02-01T07:56:26.539Z,97646.53
2023-02-01T07:58:57.308Z,97640.03
2023-02-01T08:01:26.540Z,97647.38
2023-02-01T08:03:57.931Z,97648.69
2023-02-01T08:06:26.952Z,97648.72
2023-02-01T08:08:56.178Z,97636.50
2023-02-01T08:11:25.528Z,97655.78
2023-02-01T08:13:56.874Z,97651.19
2023-02-01T08:16:25.658Z,97645.75
2023-02-01T08:18:55.192Z,97644.09
2023-02-01T08:21:26.244Z,97653.88
2023-02-01T08:23:54.837Z,97642.75
2023-02-01T08:26:24.961Z,97639.50
2023-02-01T08:28:56.030Z,97638.13
2023-02-01T08:31:26.237Z,97631.88
2023-02-01T08:33:56.701Z,97631.84
2023-02-01T08:36:28.357Z,97639.75
2023-02-01T08:38:57.031Z,97641.16
2023-02-01T08:41:26.690Z,97643.81
2023-02-01T08:43:55.732Z,97641.16
2023-02-01T08:46:24.441Z,97635.72
2023-02-01T08:48:53.076Z,97641.13
2023-02-01T08:51:23.112Z,97634.81
2023-02-01T08:53:53.269Z,97646.19
2023-02-01T08:56:22.169Z,97642.44
2023-02-01T08:58:50.752Z,97637.03
2023-02-01T09:01:20.100Z,97632.34
2023-02-01T09:03:48.694Z,97631.56
2023-02-01T09:06:17.565Z,97642.38
2023-02-01T09:08:46.749Z,97631.47
2023-02-01T09:11:18.030Z,97643.81
2023-02-01T09:13:46.931Z,97619.50
2023-02-01T09:16:15.379Z,97639.56
2023-02-01T09:18:56.209Z,97642.56
2023-02-01T09:21:32.155Z,97640.91
2023-02-01T09:24:00.743Z,97636.53
2023-02-01T09:26:32.467Z,97642.34
2023-02-01T09:29:01.914Z,97633.25
2023-02-01T09:31:30.781Z,97621.28
2023-02-01T09:33:59.386Z,97628.63
2023-02-01T09:36:30.008Z,97619.56
2023-02-01T09:38:59.704Z,97629.41
2023-02-01T09:41:53.095Z,97623.28
2023-02-01T09:44:43.948Z,97613.47
2023-02-01T09:47:15.011Z,97620.06
2023-02-01T09:49:51.655Z,97613.72
2023-02-01T09:52:23.907Z,97604.09
2023-02-01T09:54:58.524Z,97617.88
2023-02-01T09:57:34.312Z,97613.22
2023-02-01T10:00:07.053Z,97613.56
2023-02-01T10:02:38.717Z,97603.09
2023-02-01T10:05:08.434Z,97604.16
2023-02-01T10:07:41.945Z,97602.81
2023-02-01T10:10:14.926Z,97606.63
2023-02-01T10:13:16.506Z,97606.00
2023-02-01T10:15:56.651Z,97596.00
2023-02-01T10:18:33.178Z,97594.97
2023-02-01T10:21:07.175Z,97599.28
2023-02-01T10:23:58.928Z,97589.34
2023-02-01T10:26:34.481Z,97594.28
2023-02-01T10:29:07.210Z,97586.91
2023-02-01T10:31:38.206Z,97585.66
2023-02-01T10:34:16.424Z,97584.59
2023-02-01T10:36:53.211Z,97583.53
2023-02-01T10:39:21.718Z,97587.75
2023-02-01T10:41:50.492Z,97588.09
2023-02-01T10:44:23.572Z,97601.72
2023-02-01T10:46:52.237Z,97602.31
2023-02-01T10:49:25.307Z,97607.28
2023-02-01T10:51:56.479Z,97587.41
2023-02-01T10:54:35.031Z,97588.31
2023-02-01T10:57:03.859Z,97587.41
2023-02-01T10:59:37.409Z,97587.31
2023-02-01T11:02:20.434Z,97580.88
2023-02-01T11:04:48.871Z,97583.97
2023-02-01T11:07:22.058Z,97581.19
2023-02-01T11:09:52.728Z,97573.91
2023-02-01T11:12:31.482Z,97573.13
2023-02-01T11:15:05.362Z,97566.72
2023-02-01T11:17:37.401Z,97573.19
2023-02-01T11:20:11.421Z,97567.44
2023-02-01T11:22:40.014Z,97563.69
2023-02-01T11:25:12.082Z,97563.19
2023-02-01T11:27:53.114Z,97550.59
2023-02-01T11:30:32.781Z,97555.47
2023-02-01T11:33:02.655Z,97542.56
2023-02-01T11:35:32.013Z,97543.06
2023-02-01T11:38:01.763Z,97544.19
2023-02-01T11:40:31.916Z,97543.19
2023-02-01T11:43:01.945Z,97542.59
2023-02-01T11:45:34.869Z,97535.69
2023-02-01T11:48:03.833Z,97533.78
2023-02-01T11:50:36.745Z,97518.41
2023-02-01T11:53:17.247Z,97522.78
2023-02-01T11:55:53.450Z,97524.09
2023-02-01T11:58:36.877Z,97522.00
2023-02-01T12:01:20.716Z,97519.53
2023-02-01T12:04:24.933Z,97504.63
2023-02-01T12:06:54.507Z,97509.69
2023-02-01T12:09:40.750Z,97505.00
2023-02-01T12:12:14.967Z,97495.44
2023-02-01T12:14:54.508Z,97493.06
2023-02-01T12:17:58.277Z,97497.03
2023-02-01T12:20:57.996Z,97488.94
2023-02-01T12:23:37.553Z,97483.75
2023-02-01T12:26:19.729Z,97486.88
2023-02-01T12:29:02.914Z,97484.22
2023-02-01T12:31:48.317Z,97482.44
2023-02-01T12:34:42.506Z,97474.47
2023-02-01T12:37:20.641Z,97484.22
2023-02-01T12:39:57.216Z,97478.69
2023-02-01T12:42:27.895Z,97493.78
2023-02-01T12:45:00.233Z,97487.59
2023-02-01T12:47:34.155Z,97476.03
2023-02-01T12:50:05.218Z,97492.75
2023-02-01T12:52:41.546Z,97479.22
2023-02-01T12:55:18.789Z,97466.97
2023-02-01T12:57:50.266Z,97481.75
2023-02-01T13:00:23.960Z,97469.38
2023-02-01T13:02:57.914Z,97460.28
2023-02-01T13:05:31.069Z,97460.22
2023-02-01T13:08:03.438Z,97455.75
2023-02-01T13:10:35.740Z,97442.53
2023-02-01T13:13:11.941Z,97428.38
2023-02-01T13:15:43.531Z,97438.22
2023-02-01T13:18:18.801Z,97425.78
2023-02-01T13:20:52.092Z,97434.53
2023-02-01T13:23:28.503Z,97436.16
2023-02-01T13:25:57.717Z,97435.41
2023-02-01T13:28:29.413Z,97424.75
2023-02-01T13:31:05.135Z,97425.75
2023-02-01T13:33:52.495Z,97428.84
2023-02-01T13:36:37.947Z,97431.16
2023-02-01T13:39:37.778Z,97433.38
2023-02-01T13:42:13.991Z,97445.66
2023-02-01T13:44:47.325Z,97439.50
2023-02-01T13:47:24.141Z,97433.03
2023-02-01T13:49:53.458Z,97439.22
2023-02-01T13:52:30.481Z,97435.16
2023-02-01T13:55:31.744Z,97446.75
2023-02-01T13:58:06.813Z,97450.34
2023-02-01T14:00:37.328Z,97473.28
2023-02-01T14:03:23.970Z,97468.50
2023-02-01T14:06:08.278Z,97476.72
2023-02-01T14:08:42.921Z,97457.00
2023-02-01T14:11:37.843Z,97467.59
2023-02-01T14:14:48.322Z,97462.19
2023-02-01T14:17:40.263Z,97460.91
2023-02-01T14:20:46.690Z,97457.69
2023-02-01T14:23:22.329Z,97465.09
2023-02-01T14:26:22.567Z,97464.81
2023-02-01T14:29:22.029Z,97467.81
2023-02-01T14:31:55.851Z,97459.66
2023-02-01T14:34:30.662Z,97457.75
2023-02-01T14:37:01.051Z,97461.28
2023-02-01T14:39:35.776Z,97451.78
2023-02-01T14:42:07.916Z,97456.94
2023-02-01T14:44:39.109Z,97453.97
2023-02-01T14:47:13.725Z,97447.16
2023-02-01T14:49:52.384Z,97450.72
2023-02-01T14:52:23.615Z,97454.25
2023-02-01T14:54:57.067Z,97456.97
2023-02-01T14:57:27.911Z,97452.09
2023-02-01T15:00:02.548Z,97458.34
2023-02-01T15:02:32.944Z,97461.31
2023-02-01T15:05:01.619Z,97462.41
2023-02-01T15:07:30.875Z,97477.03
2023-02-01T15:10:00.577Z,97471.09
2023-02-01T15:12:32.892Z,97474.63
2023-02-01T15:15:18.312Z,97480.59
2023-02-01T15:17:53.342Z,97486.00
2023-02-01T15:20:23.913Z,97489.00
2023-02-01T15:22:56.826Z,97484.13
2023-02-01T15:25:27.268Z,97487.34
2023-02-01T15:27:55.757Z,97490.88
2023-02-01T15:30:27.929Z,97495.78
2023-02-01T15:33:08.663Z,97483.53
2023-02-01T15:35:43.618Z,97493.31
2023-02-01T15:38:23.060Z,97487.28
2023-02-01T15:40:59.598Z,97496.78
2023-02-01T15:43:28.956Z,97498.22
2023-02-01T15:46:00.865Z,97506.84
2023-02-01T15:48:33.022Z,97502.50
2023-02-01T15:51:02.299Z,97502.25
2023-02-01T15:53:32.203Z,97506.06
2023-02-01T15:56:02.798Z,97495.56
2023-02-01T15:58:32.892Z,97496.03
2023-02-01T16:01:07.475Z,97492.16
2023-02-01T16:03:37.898Z,97508.78
2023-02-01T16:06:09.035Z,97510.97
2023-02-01T16:08:38.213Z,97518.31
2023-02-01T16:11:24.843Z,97523.63
2023-02-01T16:13:53.316Z,97526.44
2023-02-01T16:16:23.849Z,97523.16
2023-02-01T16:18:52.306Z,97526.44
2023-02-01T16:21:21.310Z,97534.03
2023-02-01T16:23:53.587Z,97531.22
2023-02-01T16:26:22.396Z,97534.28
2023-02-01T16:28:50.720Z,97521.28
2023-02-01T16:31:21.274Z,97534.03
2023-02-01T16:33:52.534Z,97531.78
2023-02-01T16:36:22.165Z,97532.13
2023-02-01T16:38:50.729Z,97528.84
2023-02-01T16:41:20.847Z,97535.03
2023-02-01T16:43:51.874Z,97530.66
2023-02-01T16:46:22.293Z,97527.13
2023-02-01T16:48:54.770Z,97532.88
2023-02-01T16:51:24.073Z,97538.91
2023-02-01T16:53:54.839Z,97539.19
2023-02-01T16:56:25.832Z,97535.69
2023-02-01T16:58:55.503Z,97547.09
2023-02-01T17:01:24.945Z,97551.47
2023-02-01T17:03:54.722Z,97554.69
2023-02-01T17:06:25.431Z,97540.03
2023-02-01T17:08:55.450Z,97553.06
2023-02-01T17:11:24.088Z,97550.88
2023-02-01T17:13:52.498Z,97561.75
2023-02-01T17:16:28.328Z,97556.81
2023-02-01T17:19:00.183Z,97561.16
2023-02-01T17:21:31.804Z,97544.31
2023-02-01T17:24:01.294Z,97547.91
2023-02-01T17:26:30.180Z,97539.22
2023-02-01T17:28:59.066Z,97542.22
2023-02-01T17:31:27.670Z,97547.94
2023-02-01T17:33:59.097Z,97545.22
2023-02-01T17:36:28.191Z,97541.69
2023-02-01T17:39:05.665Z,97533.50
2023-02-01T17:41:35.196Z,97540.56
2023-02-01T17:44:03.753Z,97541.13
2023-02-01T17:46:33.186Z,97546.03
2023-02-01T17:49:03.896Z,97545.16
2023-02-01T17:51:32.491Z,97550.88
2023-02-01T17:54:00.684Z,97556.59
2023-02-01T17:56:29.787Z,97549.81
2023-02-01T17:58:59.328Z,97536.22
2023-02-01T18:01:28.008Z,97553.63
2023-02-01T18:03:56.260Z,97550.91
2023-02-01T18:06:31.360Z,97542.44
2023-02-01T18:08:59.766Z,97537.88
2023-02-01T18:11:30.383Z,97549.28
2023-02-01T18:13:58.644Z,97539.47
2023-02-01T18:16:28.947Z,97536.72
2023-02-01T18:19:01.764Z,97536.75
2023-02-01T18:21:34.813Z,97527.50
2023-02-01T18:24:03.349Z,97529.72
2023-02-01T18:26:32.276Z,97524.00
2023-02-01T18:29:00.499Z,97524.25
2023-02-01T18:31:32.290Z,97509.84
2023-02-01T18:34:01.578Z,97511.19
2023-02-01T18:36:34.818Z,97507.38
2023-02-01T18:39:03.049Z,97517.47
2023-02-01T18:41:31.678Z,97512.63
2023-02-01T18:44:00.124Z,97522.66
2023-02-01T18:46:29.573Z,97525.66
2023-02-01T18:48:58.127Z,97527.81
2023-02-01T18:51:26.602Z,97508.56
2023-02-01T18:53:56.189Z,97491.41
2023-02-01T18:56:24.896Z,97503.41
2023-02-01T18:58:53.158Z,97502.31
2023-02-01T19:01:23.250Z,97498.19
2023-02-01T19:03:57.267Z,97496.31
2023-02-01T19:06:32.159Z,97484.38
2023-02-01T19:09:01.941Z,97489.50
2023-02-01T19:11:30.502Z,97482.47
2023-02-01T19:13:58.795Z,97484.38
2023-02-01T19:16:27.269Z,97487.63
2023-02-01T19:18:55.644Z,97471.63
2023-02-01T19:21:24.254Z,97480.88
2023-02-01T19:23:52.558Z,97472.16
2023-02-01T19:26:22.837Z,97458.53
2023-02-01T19:28:51.120Z,97454.78
2023-02-01T19:31:19.759Z,97447.19
2023-02-01T19:33:48.057Z,97448.28
2023-02-01T19:36:18.312Z,97440.94
2023-02-01T19:38:46.696Z,97429.28
2023-02-01T19:41:15.175Z,97431.19
2023-02-01T19:43:45.200Z,97422.44
2023-02-01T19:46:14.356Z,97416.25
2023-02-01T19:48:42.625Z,97424.94
2023-02-01T19:51:11.830Z,97417.06
2023-02-01T19:53:40.196Z,97425.47
2023-02-01T19:56:09.198Z,97411.88
2023-02-01T19:58:37.426Z,97415.44
2023-02-01T20:01:07.290Z,97417.00
2023-02-01T20:03:35.717Z,97416.81
2023-02-01T20:06:04.513Z,97429.84
2023-02-01T20:08:32.799Z,97411.34
2023-02-01T20:11:01.345Z,97412.19
2023-02-01T20:13:29.805Z,97411.63
2023-02-01T20:15:59.562Z,97396.69
2023-02-01T20:18:29.690Z,97403.16
2023-02-01T20:20:58.758Z,97400.44
2023-02-01T20:23:28.506Z,97390.94
2023-02-01T20:26:03.126Z,97398.75
2023-02-01T20:28:33.877Z,97381.97
2023-02-01T20:31:02.977Z,97377.13
2023-02-01T20:33:33.285Z,97373.75
2023-02-01T20:36:02.001Z,97376.03
2023-02-01T20:38:30.241Z,97378.00
2023-02-01T20:41:04.144Z,97375.97
2023-02-01T20:43:32.961Z,97385.53
2023-02-01T20:46:01.800Z,97372.47
2023-02-01T20:48:30.772Z,97376.50
2023-02-01T20:51:01.015Z,97379.63
2023-02-01T20:53:29.224Z,97366.13
2023-02-01T20:55:59.365Z,97367.75
2023-02-01T20:58:28.174Z,97349.88
2023-02-01T21:00:56.711Z,97373.88
2023-02-01T21:03:25.614Z,97377.91
2023-02-01T21:05:56.313Z,97344.53
2023-02-01T21:08:26.411Z,97345.91
2023-02-01T21:10:59.373Z,97344.81
2023-02-01T21:13:30.501Z,97344.59
2023-02-01T21:15:59.724Z,97341.34
2023-02-01T21:18:28.004Z,97346.28
2023-02-01T21:20:56.544Z,97329.19
2023-02-01T21:23:26.117Z,97333.47
2023-02-01T21:25:54.695Z,97329.97
2023-02-01T21:28:22.888Z,97326.19
2023-02-01T21:30:52.387Z,97329.66
2023-02-01T21:33:20.582Z,97324.56
2023-02-01T21:35:51.504Z,97316.63
2023-02-01T21:38:21.432Z,97317.75
2023-02-01T21:43:47.860Z,97324.16
2023-02-01T21:46:18.250Z,97325.63
2023-02-01T21:49:03.995Z,97312.59
2023-02-01T21:51:35.584Z,97308.00
2023-02-01T21:54:03.783Z,97311.56
2023-02-01T21:56:32.567Z,97311.78
2023-02-01T21:59:02.199Z,97310.69
2023-02-01T22:01:30.855Z,97312.63
2023-02-01T22:03:59.301Z,97300.41
2023-02-01T22:06:29.065Z,97307.19
2023-02-01T22:08:57.694Z,97291.19
2023-02-01T22:11:26.591Z,97293.03
2023-02-01T22:13:55.105Z,97305.03
2023-02-01T22:16:25.535Z,97298.72
2023-02-01T22:18:54.192Z,97316.09
2023-02-01T22:21:24.214Z,97302.22
2023-02-01T22:23:54.410Z,97291.97
2023-02-01T22:26:23.765Z,97304.63
2023-02-01T22:28:52.033Z,97289.22
2023-02-01T22:31:21.335Z,97296.75
2023-02-01T22:33:51.893Z,97301.00
2023-02-01T22:36:20.945Z,97284.81
2023-02-01T22:38:49.651Z,97297.00
2023-02-01T22:41:18.432Z,97302.69
2023-02-01T22:43:47.650Z,97299.88
2023-02-01T22:46:17.880Z,97303.31
2023-02-01T22:48:47.383Z,97297.84
2023-02-01T22:51:22.368Z,97313.50
2023-02-01T22:53:57.077Z,97315.63
2023-02-01T22:56:27.104Z,97312.84
2023-02-01T22:58:56.688Z,97324.44
2023-02-01T23:01:25.322Z,97324.84
2023-02-01T23:03:57.420Z,97324.69
2023-02-01T23:06:27.914Z,97326.69
2023-02-01T23:08:57.082Z,97313.84
2023-02-01T23:11:26.466Z,97341.75
2023-02-01T23:13:55.077Z,97334.19
2023-02-01T23:16:23.840Z,97333.66
2023-02-01T23:18:52.081Z,97321.25
2023-02-01T23:21:23.279Z,97341.81
2023-02-01T23:23:56.321Z,97346.97
2023-02-01T23:26:26.625Z,97352.97
2023-02-01T23:28:55.596Z,97344.59
2023-02-01T23:31:27.304Z,97329.16
2023-02-01T23:33:56.686Z,97324.56
2023-02-01T23:36:26.654Z,97332.16
2023-02-01T23:38:56.327Z,97338.13
2023-02-01T23:41:27.557Z,97327.56
2023-02-01T23:44:01.857Z,97331.06
2023-02-01T23:46:33.038Z,97328.63
2023-02-01T23:49:02.202Z,97339.75
2023-02-01T23:51:31.127Z,97330.50
2023-02-01T23:54:00.984Z,97343.00
2023-02-01T23:56:33.445Z,97344.59
2023-02-01T23:59:02.629Z,97338.38
